createdAt,value
2022-11-02T00:00:51.935Z,10.50
2022-11-02T00:03:18.831Z,10.50
2022-11-02T00:05:48.597Z,10.50
2022-11-02T00:08:16.877Z,10.60
2022-11-02T00:10:45.667Z,10.60
2022-11-02T00:13:17.115Z,10.60
2022-11-02T00:15:43.980Z,10.60
2022-11-02T00:18:12.687Z,10.60
2022-11-02T00:20:45.906Z,10.60
2022-11-02T00:23:14.524Z,10.60
2022-11-02T00:25:47.135Z,10.60
2022-11-02T00:28:17.536Z,10.60
2022-11-02T00:30:45.518Z,10.60
2022-11-02T00:33:14.536Z,10.60
2022-11-02T00:35:44.512Z,10.60
2022-11-02T00:38:11.575Z,10.60
2022-11-02T00:40:38.642Z,10.60
2022-11-02T00:43:06.196Z,10.60
2022-11-02T00:45:35.147Z,10.60
2022-11-02T00:48:04.936Z,10.70
2022-11-02T00:50:37.645Z,10.70
2022-11-02T00:53:06.752Z,10.70
2022-11-02T00:55:33.518Z,10.70
2022-11-02T00:58:06.738Z,10.70
2022-11-02T01:00:35.902Z,10.80
2022-11-02T01:03:02.958Z,10.80
2022-11-02T01:05:32.541Z,10.80
2022-11-02T01:08:01.599Z,10.80
2022-11-02T01:10:28.701Z,10.90
2022-11-02T01:12:55.655Z,10.90
2022-11-02T01:15:25.003Z,10.80
2022-11-02T01:17:51.779Z,10.90
2022-11-02T01:20:25.059Z,10.90
2022-11-02T01:22:58.835Z,10.90
2022-11-02T01:25:25.928Z,10.90
2022-11-02T01:27:55.772Z,11.00
2022-11-02T01:30:25.149Z,11.00
2022-11-02T01:32:54.254Z,11.00
2022-11-02T01:35:23.888Z,11.10
2022-11-02T01:38:08.259Z,11.10
2022-11-02T01:40:40.724Z,11.10
2022-11-02T01:43:46.245Z,11.20
2022-11-02T01:46:22.582Z,11.10
2022-11-02T01:49:00.337Z,11.20
2022-11-02T01:51:35.431Z,11.20
2022-11-02T01:54:19.619Z,11.20
2022-11-02T01:56:56.099Z,11.20
2022-11-02T01:59:36.168Z,11.30
2022-11-02T02:02:08.010Z,11.30
2022-11-02T02:04:35.224Z,11.30
2022-11-02T02:07:04.616Z,11.30
2022-11-02T02:09:31.748Z,11.30
2022-11-02T02:11:58.726Z,11.30
2022-11-02T02:14:25.431Z,11.30
2022-11-02T02:17:01.376Z,11.30
2022-11-02T02:19:30.878Z,11.40
2022-11-02T02:22:22.420Z,11.40
2022-11-02T02:25:18.138Z,11.40
2022-11-02T02:28:02.511Z,11.40
2022-11-02T02:30:37.281Z,11.40
2022-11-02T02:33:26.700Z,11.40
2022-11-02T02:36:00.935Z,11.40
2022-11-02T02:39:04.557Z,11.40
2022-11-02T02:41:37.224Z,11.40
2022-11-02T02:44:35.809Z,11.40
2022-11-02T02:47:21.680Z,11.40
2022-11-02T02:49:58.481Z,11.40
2022-11-02T02:52:29.157Z,11.40
2022-11-02T02:54:59.848Z,11.40
2022-11-02T02:57:31.741Z,11.50
2022-11-02T03:00:00.835Z,11.50
2022-11-02T03:02:41.802Z,11.40
2022-11-02T03:05:27.826Z,11.40
2022-11-02T03:07:56.203Z,11.40
2022-11-02T03:10:31.521Z,11.40
2022-11-02T03:13:07.499Z,11.40
2022-11-02T03:15:52.778Z,11.40
2022-11-02T03:18:40.531Z,11.40
2022-11-02T03:21:33.299Z,11.40
2022-11-02T03:24:19.907Z,11.40
2022-11-02T03:27:10.728Z,11.40
2022-11-02T03:29:51.275Z,11.40
2022-11-02T03:32:33.499Z,11.40
2022-11-02T03:35:04.602Z,11.40
2022-11-02T03:37:54.675Z,11.50
2022-11-02T03:40:35.579Z,11.40
2022-11-02T03:43:05.390Z,11.40
2022-11-02T03:45:38.465Z,11.50
2022-11-02T03:48:08.591Z,11.40
2022-11-02T03:50:42.062Z,11.50
2022-11-02T03:53:27.088Z,11.40
2022-11-02T03:56:00.349Z,11.40
2022-11-02T03:58:29.187Z,11.50
2022-11-02T04:01:00.027Z,11.50
2022-11-02T04:03:28.365Z,11.50
2022-11-02T04:05:55.028Z,11.50
2022-11-02T04:08:39.093Z,11.40
2022-11-02T04:11:31.853Z,11.40
2022-11-02T04:14:17.767Z,11.40
2022-11-02T04:16:46.667Z,11.40
2022-11-02T04:19:27.907Z,11.40
2022-11-02T04:22:16.465Z,11.40
2022-11-02T04:25:03.431Z,11.40
2022-11-02T04:27:30.174Z,11.30
2022-11-02T04:29:59.087Z,11.30
2022-11-02T04:32:44.360Z,11.40
2022-11-02T04:35:11.147Z,11.30
2022-11-02T04:38:08.208Z,11.30
2022-11-02T04:40:35.062Z,11.20
2022-11-02T04:43:05.039Z,11.20
2022-11-02T04:45:31.716Z,11.10
2022-11-02T04:48:04.516Z,11.10
2022-11-02T04:50:49.758Z,11.10
2022-11-02T04:53:21.842Z,11.10
2022-11-02T04:55:49.079Z,11.10
2022-11-02T04:58:18.271Z,11.10
2022-11-02T05:00:45.501Z,11.10
2022-11-02T05:03:12.721Z,11.00
2022-11-02T05:05:40.538Z,11.00
2022-11-02T05:08:07.475Z,11.00
2022-11-02T05:10:34.364Z,11.00
2022-11-02T05:13:01.583Z,11.00
2022-11-02T05:15:28.425Z,11.00
2022-11-02T05:17:55.347Z,11.00
2022-11-02T05:20:22.160Z,11.00
2022-11-02T05:22:49.107Z,11.00
2022-11-02T05:25:15.885Z,11.00
2022-11-02T05:27:42.631Z,11.00
2022-11-02T05:30:10.140Z,11.00
2022-11-02T05:32:42.173Z,11.10
2022-11-02T05:35:09.388Z,10.90
2022-11-02T05:37:38.439Z,11.10
2022-11-02T05:40:06.059Z,11.10
2022-11-02T05:42:33.424Z,11.10
2022-11-02T05:45:02.104Z,11.10
2022-11-02T05:47:28.745Z,11.10
2022-11-02T05:49:55.429Z,11.10
2022-11-02T05:52:22.981Z,11.10
2022-11-02T05:54:49.654Z,11.20
2022-11-02T05:57:20.385Z,11.20
2022-11-02T05:59:49.363Z,11.20
2022-11-02T06:02:16.285Z,11.20
2022-11-02T06:04:42.984Z,11.20
2022-11-02T06:07:09.670Z,11.20
2022-11-02T06:09:36.656Z,11.20
2022-11-02T06:12:03.534Z,11.20
2022-11-02T06:14:32.863Z,11.20
2022-11-02T06:16:59.543Z,11.20
2022-11-02T06:19:28.958Z,11.30
2022-11-02T06:21:56.429Z,11.20
2022-11-02T06:24:23.188Z,11.30
2022-11-02T06:26:57.195Z,11.30
2022-11-02T06:29:26.031Z,11.30
2022-11-02T06:31:53.052Z,11.30
2022-11-02T06:34:19.857Z,11.30
2022-11-02T06:36:46.577Z,11.30
2022-11-02T06:39:13.325Z,11.30
2022-11-02T06:41:39.994Z,11.40
2022-11-02T06:44:06.794Z,11.30
2022-11-02T06:46:35.931Z,11.40
2022-11-02T06:49:02.648Z,11.30
2022-11-02T06:51:29.383Z,11.30
2022-11-02T06:53:56.167Z,11.40
2022-11-02T06:56:27.208Z,11.30
2022-11-02T06:58:53.846Z,11.30
2022-11-02T07:01:21.166Z,11.30
2022-11-02T07:03:47.935Z,11.30
2022-11-02T07:06:14.757Z,11.30
2022-11-02T07:08:42.615Z,11.30
2022-11-02T07:11:16.782Z,11.30
2022-11-02T07:13:43.996Z,11.30
2022-11-02T07:16:11.347Z,11.30
2022-11-02T07:18:38.079Z,11.40
2022-11-02T07:21:05.264Z,11.30
2022-11-02T07:23:34.589Z,11.40
2022-11-02T07:26:05.236Z,11.40
2022-11-02T07:28:31.940Z,11.50
2022-11-02T07:31:02.499Z,11.50
2022-11-02T07:33:29.160Z,11.50
2022-11-02T07:35:55.875Z,11.50
2022-11-02T07:38:22.527Z,11.60
2022-11-02T07:40:52.815Z,11.60
2022-11-02T07:43:23.005Z,11.60
2022-11-02T07:45:49.694Z,11.60
2022-11-02T07:48:16.400Z,11.60
2022-11-02T07:50:43.077Z,11.70
2022-11-02T07:53:10.022Z,11.70
2022-11-02T07:55:36.748Z,11.70
2022-11-02T07:58:09.430Z,11.80
2022-11-02T08:00:40.744Z,11.90
2022-11-02T08:03:10.155Z,11.90
2022-11-02T08:05:39.703Z,11.90
2022-11-02T08:08:26.606Z,11.90
2022-11-02T08:10:53.471Z,11.90
2022-11-02T08:13:23.201Z,11.90
2022-11-02T08:15:55.670Z,11.90
2022-11-02T08:18:26.367Z,11.90
2022-11-02T08:20:56.367Z,11.90
2022-11-02T08:23:24.180Z,11.90
2022-11-02T08:25:53.963Z,11.90
2022-11-02T08:28:25.505Z,11.90
2022-11-02T08:30:52.741Z,11.90
2022-11-02T08:33:20.460Z,12.00
2022-11-02T08:35:48.092Z,12.00
2022-11-02T08:38:15.510Z,12.00
2022-11-02T08:40:42.425Z,12.10
2022-11-02T08:43:14.023Z,12.20
2022-11-02T08:46:13.371Z,12.20
2022-11-02T08:48:30.702Z,12.20
2022-11-02T08:51:00.005Z,12.20
2022-11-02T08:53:26.867Z,12.20
2022-11-02T08:55:53.547Z,12.30
2022-11-02T08:58:22.708Z,12.20
2022-11-02T09:00:49.858Z,12.20
2022-11-02T09:03:18.659Z,12.10
2022-11-02T09:05:48.830Z,12.20
2022-11-02T09:08:18.182Z,12.10
2022-11-02T09:10:46.528Z,12.10
2022-11-02T09:13:14.859Z,12.10
2022-11-02T09:15:43.147Z,12.10
2022-11-02T09:18:10.299Z,12.10
2022-11-02T09:20:37.114Z,12.10
2022-11-02T09:23:04.035Z,12.10
2022-11-02T09:25:30.923Z,12.10
2022-11-02T09:27:58.443Z,12.10
2022-11-02T09:30:30.983Z,12.20
2022-11-02T09:33:03.483Z,12.10
2022-11-02T09:35:35.092Z,12.20
2022-11-02T09:38:03.482Z,12.20
2022-11-02T09:40:51.849Z,12.20
2022-11-02T09:43:41.082Z,12.30
2022-11-02T09:46:19.473Z,12.30
2022-11-02T09:48:54.042Z,12.30
2022-11-02T09:51:35.268Z,12.40
2022-11-02T09:54:19.220Z,12.40
2022-11-02T09:56:47.045Z,12.40
2022-11-02T09:59:17.953Z,12.40
2022-11-02T10:02:25.050Z,12.50
2022-11-02T10:05:15.788Z,12.50
2022-11-02T10:07:51.313Z,12.50
2022-11-02T10:10:32.051Z,12.50
2022-11-02T10:13:27.396Z,12.70
2022-11-02T10:15:57.862Z,12.70
2022-11-02T10:18:30.045Z,12.80
2022-11-02T10:21:06.009Z,12.80
2022-11-02T10:24:01.103Z,12.90
2022-11-02T10:26:32.020Z,12.90
2022-11-02T10:29:39.228Z,12.90
2022-11-02T10:32:08.754Z,13.00
2022-11-02T10:34:38.267Z,13.00
2022-11-02T10:37:44.761Z,13.00
2022-11-02T10:40:33.419Z,13.20
2022-11-02T10:43:18.739Z,13.50
2022-11-02T10:46:10.184Z,13.60
2022-11-02T10:48:55.860Z,13.60
2022-11-02T10:51:24.953Z,13.90
2022-11-02T10:53:56.254Z,14.10
2022-11-02T10:56:25.160Z,13.90
2022-11-02T10:59:01.660Z,13.80
2022-11-02T11:01:30.254Z,13.90
2022-11-02T11:03:58.525Z,13.80
2022-11-02T11:06:30.801Z,13.90
2022-11-02T11:09:07.325Z,13.90
2022-11-02T11:11:37.451Z,13.90
2022-11-02T11:16:56.773Z,13.90
2022-11-02T11:19:41.771Z,14.10
2022-11-02T11:22:37.085Z,14.20
2022-11-02T11:25:13.648Z,14.30
2022-11-02T11:27:48.541Z,14.30
2022-11-02T11:30:59.638Z,14.40
2022-11-02T11:33:21.046Z,14.60
2022-11-02T11:35:52.041Z,14.60
2022-11-02T11:38:22.572Z,14.80
2022-11-02T11:40:54.161Z,14.90
2022-11-02T11:43:33.279Z,15.00
2022-11-02T11:46:08.449Z,15.10
2022-11-02T11:48:43.053Z,15.30
2022-11-02T11:51:39.664Z,15.40
2022-11-02T11:54:24.698Z,15.20
2022-11-02T11:56:56.780Z,15.20
2022-11-02T11:59:42.390Z,15.20
2022-11-02T12:02:29.057Z,15.30
2022-11-02T12:05:12.476Z,15.20
2022-11-02T12:08:26.862Z,15.00
2022-11-02T12:11:19.043Z,14.90
2022-11-02T12:13:46.052Z,14.90
2022-11-02T12:16:45.526Z,14.80
2022-11-02T12:19:34.073Z,14.70
2022-11-02T12:22:22.028Z,14.60
2022-11-02T12:25:07.396Z,14.60
2022-11-02T12:27:45.544Z,14.50
2022-11-02T12:30:21.272Z,14.50
2022-11-02T12:32:55.875Z,14.40
2022-11-02T12:35:43.148Z,14.50
2022-11-02T12:38:30.161Z,14.50
2022-11-02T12:41:02.964Z,14.50
2022-11-02T12:43:49.134Z,14.50
2022-11-02T12:46:40.468Z,14.50
2022-11-02T12:49:48.021Z,14.60
2022-11-02T12:52:28.339Z,14.50
2022-11-02T12:55:01.816Z,14.50
2022-11-02T12:57:34.886Z,14.60
2022-11-02T13:00:08.577Z,14.60
2022-11-02T13:03:07.687Z,14.60
2022-11-02T13:06:01.619Z,14.70
2022-11-02T13:09:05.095Z,14.80
2022-11-02T13:11:40.804Z,14.80
2022-11-02T13:14:15.501Z,14.80
2022-11-02T13:16:55.487Z,14.80
2022-11-02T13:19:38.303Z,14.80
2022-11-02T13:22:08.527Z,14.90
2022-11-02T13:24:38.523Z,14.90
2022-11-02T13:27:14.795Z,14.90
2022-11-02T13:30:01.807Z,14.90
2022-11-02T13:32:45.376Z,14.90
2022-11-02T13:35:35.562Z,14.80
2022-11-02T13:38:32.081Z,14.70
2022-11-02T13:41:30.545Z,14.80
2022-11-02T13:43:59.824Z,14.80
2022-11-02T13:46:47.499Z,14.80
2022-11-02T13:49:27.663Z,14.80
2022-11-02T13:52:15.994Z,14.80
2022-11-02T13:54:48.829Z,14.70
2022-11-02T13:57:40.190Z,14.60
2022-11-02T14:00:33.836Z,14.60
2022-11-02T14:03:13.698Z,14.60
2022-11-02T14:06:02.037Z,14.50
2022-11-02T14:08:39.343Z,14.50
2022-11-02T14:11:09.005Z,14.50
2022-11-02T14:13:55.810Z,14.40
2022-11-02T14:16:50.723Z,14.30
2022-11-02T14:19:22.642Z,14.20
2022-11-02T14:21:51.793Z,14.20
2022-11-02T14:24:34.117Z,14.20
2022-11-02T14:27:06.698Z,14.00
2022-11-02T14:29:55.900Z,14.00
2022-11-02T14:32:45.181Z,14.00
2022-11-02T14:36:27.235Z,13.90
2022-11-02T14:40:03.154Z,13.80
2022-11-02T14:43:00.629Z,13.70
2022-11-02T14:45:55.596Z,13.70
2022-11-02T14:48:24.981Z,13.60
2022-11-02T14:51:10.247Z,13.50
2022-11-02T14:53:49.622Z,13.40
2022-11-02T14:58:06.532Z,13.40
2022-11-02T15:00:17.834Z,13.30
2022-11-02T15:03:07.548Z,13.20
2022-11-02T15:06:29.308Z,13.20
2022-11-02T15:09:24.042Z,13.10
2022-11-02T15:16:22.716Z,13.00
2022-11-02T15:19:35.178Z,12.90
2022-11-02T15:32:12.513Z,12.60
2022-11-02T15:35:19.399Z,12.40
2022-11-02T15:38:39.464Z,12.40
2022-11-02T15:41:38.241Z,12.30
2022-11-02T15:52:29.335Z,12.10
2022-11-02T15:58:02.712Z,11.90
2022-11-02T16:01:35.357Z,11.90
2022-11-02T16:13:48.727Z,11.60
2022-11-02T16:16:22.799Z,11.50
2022-11-02T16:18:55.151Z,11.50
2022-11-02T16:21:22.038Z,11.40
2022-11-02T16:23:59.654Z,11.30
2022-11-02T16:26:29.739Z,11.30
2022-11-02T16:28:59.519Z,11.20
2022-11-02T16:31:32.064Z,11.10
2022-11-02T16:34:15.506Z,11.10
2022-11-02T16:36:42.536Z,11.00
2022-11-02T16:39:37.521Z,10.90
2022-11-02T16:42:19.145Z,10.90
2022-11-02T16:44:59.030Z,10.80
2022-11-02T16:47:38.094Z,10.80
2022-11-02T16:50:18.652Z,10.70
2022-11-02T16:53:02.523Z,10.70
2022-11-02T16:55:34.909Z,10.60
2022-11-02T16:58:02.633Z,10.60
2022-11-02T17:00:29.624Z,10.50
2022-11-02T17:02:56.521Z,10.50
2022-11-02T17:05:25.928Z,10.40
2022-11-02T17:08:00.391Z,10.30
2022-11-02T17:10:29.291Z,10.30
2022-11-02T17:12:57.254Z,10.30
2022-11-02T17:15:26.919Z,10.20
2022-11-02T17:18:23.775Z,10.20
2022-11-02T17:21:27.510Z,10.20
2022-11-02T17:23:56.013Z,10.10
2022-11-02T17:26:22.805Z,10.10
2022-11-02T17:28:51.657Z,10.10
2022-11-02T17:31:21.334Z,10.10
2022-11-02T17:33:48.645Z,10.00
2022-11-02T17:36:16.449Z,10.00
2022-11-02T17:45:29.378Z,9.90
2022-11-02T17:49:01.543Z,9.90
2022-11-02T17:52:02.831Z,9.90
2022-11-02T18:00:40.972Z,9.70
2022-11-02T18:04:32.132Z,9.60
2022-11-02T18:06:32.989Z,9.60
2022-11-02T18:09:36.674Z,9.80
2022-11-02T18:12:26.820Z,9.80
2022-11-02T18:19:20.898Z,9.90
2022-11-02T18:22:27.818Z,10.00
2022-11-02T18:25:23.960Z,10.10
2022-11-02T18:28:19.099Z,10.10
2022-11-02T18:31:37.674Z,10.20
2022-11-02T18:35:17.189Z,10.30
2022-11-02T18:38:39.097Z,10.20
2022-11-02T18:54:59.450Z,10.20
2022-11-02T19:04:48.922Z,9.90
2022-11-02T19:08:12.473Z,10.00
2022-11-02T19:11:08.389Z,10.00
2022-11-02T19:13:59.861Z,9.90
2022-11-02T19:16:34.380Z,9.90
2022-11-02T19:19:36.430Z,10.00
2022-11-02T19:22:18.667Z,10.00
2022-11-02T19:25:07.678Z,9.90
2022-11-02T19:27:37.284Z,9.90
2022-11-02T19:30:13.013Z,9.90
2022-11-02T19:32:45.431Z,9.90
2022-11-02T19:35:15.948Z,10.00
2022-11-02T19:37:43.361Z,10.00
2022-11-02T19:40:12.909Z,10.10
2022-11-02T19:42:39.804Z,10.10
2022-11-02T19:45:07.670Z,10.20
2022-11-02T19:47:34.509Z,10.10
2022-11-02T19:50:01.288Z,10.20
2022-11-02T19:52:28.012Z,10.20
2022-11-02T19:54:54.883Z,10.20
2022-11-02T19:57:21.640Z,10.30
2022-11-02T19:59:48.308Z,10.30
2022-11-02T20:02:15.785Z,10.40
2022-11-02T20:04:44.490Z,10.30
2022-11-02T20:07:11.472Z,10.40
2022-11-02T20:09:38.232Z,10.40
2022-11-02T20:12:07.559Z,10.40
2022-11-02T20:14:48.094Z,10.40
2022-11-02T20:17:38.175Z,10.40
2022-11-02T20:20:23.290Z,10.30
2022-11-02T20:23:11.966Z,10.40
2022-11-02T20:25:42.554Z,10.30
2022-11-02T20:28:10.440Z,10.30
2022-11-02T20:30:42.088Z,10.40
2022-11-02T20:33:11.924Z,10.30
2022-11-02T20:35:40.022Z,10.30
2022-11-02T20:38:11.685Z,10.30
2022-11-02T20:40:43.052Z,10.30
2022-11-02T20:43:09.782Z,10.30
2022-11-02T20:45:46.327Z,10.30
2022-11-02T20:48:17.605Z,10.30
2022-11-02T20:50:50.649Z,10.30
2022-11-02T20:53:19.619Z,10.30
2022-11-02T20:55:47.930Z,10.30
2022-11-02T20:58:14.691Z,10.30
2022-11-02T21:00:41.459Z,10.30
2022-11-02T21:03:10.518Z,10.20
2022-11-02T21:05:55.234Z,10.20
2022-11-02T21:08:24.935Z,10.20
2022-11-02T21:10:59.330Z,10.20
2022-11-02T21:13:45.112Z,10.20
2022-11-02T21:16:16.991Z,10.20
2022-11-02T21:18:44.377Z,10.10
2022-11-02T21:21:13.911Z,10.10
2022-11-02T21:23:41.098Z,10.10
2022-11-02T21:26:12.999Z,10.10
2022-11-02T21:28:49.781Z,10.00
2022-11-02T21:31:19.483Z,10.00
2022-11-02T21:33:48.106Z,10.00
2022-11-02T21:36:17.537Z,10.00
2022-11-02T21:38:52.076Z,10.00
2022-11-02T21:41:26.641Z,9.90
2022-11-02T21:43:56.488Z,9.90
2022-11-02T21:46:25.963Z,9.90
2022-11-02T21:48:56.738Z,9.70
2022-11-02T21:51:23.920Z,9.90
2022-11-02T21:53:53.630Z,9.80
2022-11-02T21:57:01.248Z,9.80
2022-11-02T21:59:26.197Z,9.80
2022-11-02T22:01:57.293Z,9.80
2022-11-02T22:04:32.765Z,9.80
2022-11-02T22:07:02.652Z,9.80
2022-11-02T22:09:29.831Z,9.80
2022-11-02T22:12:16.101Z,9.70
2022-11-02T22:14:44.868Z,9.70
2022-11-02T22:17:21.980Z,9.70
2022-11-02T22:19:55.595Z,9.70
2022-11-02T22:22:22.414Z,9.70
2022-11-02T22:24:49.710Z,9.60
2022-11-02T22:27:16.565Z,9.60
2022-11-02T22:29:43.371Z,9.60
2022-11-02T22:32:14.656Z,9.60
2022-11-02T22:34:47.947Z,9.50
2022-11-02T22:37:33.543Z,9.50
2022-11-02T22:40:00.206Z,9.40
2022-11-02T22:42:26.906Z,9.40
2022-11-02T22:44:55.252Z,9.40
2022-11-02T22:47:21.952Z,9.40
2022-11-02T22:49:48.835Z,9.40
2022-11-02T22:52:15.531Z,9.30
2022-11-02T22:54:42.249Z,9.20
2022-11-02T22:57:08.876Z,9.20
2022-11-02T22:59:42.217Z,9.10
2022-11-02T23:02:13.208Z,9.10
2022-11-02T23:04:42.637Z,9.00
2022-11-02T23:07:10.773Z,8.90
2022-11-02T23:09:41.956Z,8.90
2022-11-02T23:12:08.693Z,8.90
2022-11-02T23:14:35.410Z,8.80
2022-11-02T23:17:07.462Z,8.80
2022-11-02T23:19:37.375Z,8.70
2022-11-02T23:22:24.489Z,8.60
2022-11-02T23:25:13.919Z,8.60
2022-11-02T23:28:13.893Z,8.50
2022-11-02T23:31:00.047Z,8.40
2022-11-02T23:33:31.997Z,8.30
2022-11-02T23:36:12.496Z,8.30
2022-11-02T23:38:58.597Z,8.20
2022-11-02T23:41:28.058Z,8.20
2022-11-02T23:44:11.673Z,8.10
2022-11-02T23:46:40.090Z,8.10
2022-11-02T23:49:13.974Z,8.00
2022-11-02T23:52:04.062Z,7.90
2022-11-02T23:54:49.496Z,7.90
2022-11-02T23:57:16.371Z,7.90
2022-11-02T23:59:45.210Z,7.80
